Time;durP1;ratioP1;P1;durP2;ratioP2;P2;SDS_P1;SDS_P2;PMS_P1;PMS_P2;Temp;Humidity;BMP_temperature;BMP_pressure;BME280_temperature;BME280_humidity;BME280_pressure;Samples;Min_cycle;Max_cycle;Signal;HPM_P1;HPM_P2
2021/07/17 00:02:05;;;;;;;1.40;1.13;;;;;;;19.11;70.47;99341.66;5095537;27;43488;-85
2021/07/17 00:04:33;;;;;;;1.33;1.23;;;;;;;19.14;70.25;99352.13;5094738;27;42739;-84
2021/07/17 00:07:01;;;;;;;1.23;1.13;;;;;;;19.21;70.08;99372.91;5094119;27;41662;-82
2021/07/17 00:09:28;;;;;;;1.60;1.50;;;;;;;18.93;70.09;99330.72;5094911;27;40930;-83
2021/07/17 00:11:56;;;;;;;1.20;1.10;;;;;;;19.08;70.14;99352.66;5094266;27;41825;-84
2021/07/17 00:14:24;;;;;;;1.63;1.47;;;;;;;19.08;70.67;99366.09;5112661;27;42595;-85
2021/07/17 00:16:51;;;;;;;1.70;1.57;;;;;;;19.01;70.66;99355.91;5095286;27;39251;-85
2021/07/17 00:19:21;;;;;;;2.07;1.57;;;;;;;18.96;70.46;99352.78;5094276;27;41972;-84
2021/07/17 00:21:49;;;;;;;3.10;1.67;;;;;;;18.89;70.53;99337.38;5095688;27;42105;-85
2021/07/17 00:24:16;;;;;;;1.77;1.67;;;;;;;18.99;70.69;99357.03;5094658;27;42229;-84
2021/07/17 00:26:45;;;;;;;1.17;1.00;;;;;;;19.00;71.12;99359.56;5099438;27;39069;-83
2021/07/17 00:29:13;;;;;;;1.30;1.20;;;;;;;18.96;71.29;99363.50;5098897;27;40938;-83
2021/07/17 00:31:40;;;;;;;1.53;1.27;;;;;;;18.93;70.97;99357.56;5090517;27;42595;-83
2021/07/17 00:34:11;;;;;;;1.60;0.93;;;;;;;18.91;71.76;99365.78;5099879;27;41152;-84
2021/07/17 00:36:40;;;;;;;1.90;1.80;;;;;;;18.99;72.04;99382.03;5098855;27;38880;-83
2021/07/17 00:39:07;;;;;;;1.60;1.43;;;;;;;18.90;71.98;99368.59;5099723;27;41569;-85
2021/07/17 00:41:35;;;;;;;2.10;1.80;;;;;;;18.87;71.94;99364.34;5098653;27;43859;-83
2021/07/17 00:44:03;;;;;;;2.70;1.33;;;;;;;18.95;72.25;99375.22;5099680;27;42035;-85
2021/07/17 00:46:33;;;;;;;1.50;1.20;;;;;;;18.93;72.14;99369.13;5097899;27;39091;-84
2021/07/17 00:49:02;;;;;;;1.87;1.73;;;;;;;18.89;72.24;99367.75;5098707;27;40977;-86
2021/07/17 00:51:30;;;;;;;1.83;1.20;;;;;;;18.92;72.90;99366.59;5097613;27;42718;-83
2021/07/17 00:54:03;;;;;;;1.53;1.30;;;;;;;18.92;73.06;99367.44;5116188;27;42366;-84
2021/07/17 00:56:31;;;;;;;1.77;1.67;;;;;;;18.92;73.38;99356.69;5098027;27;40596;-83
2021/07/17 00:59:04;;;;;;;1.33;1.23;;;;;;;18.94;73.47;99361.94;5099675;27;42817;-86
2021/07/17 01:01:34;;;;;;;1.70;1.60;;;;;;;18.93;73.21;99357.56;5115183;27;42838;-86
2021/07/17 01:04:02;;;;;;;1.30;1.20;;;;;;;19.02;73.20;99375.56;5098918;27;41143;-83
2021/07/17 01:06:30;;;;;;;1.83;1.73;;;;;;;18.93;72.94;99358.41;5098676;27;38918;-86
2021/07/17 01:08:58;;;;;;;1.70;1.50;;;;;;;18.84;73.13;99347.66;5098599;27;40810;-85
2021/07/17 01:11:26;;;;;;;1.40;1.30;;;;;;;18.83;72.88;99354.84;5115323;27;42921;-84
2021/07/17 01:13:54;;;;;;;2.10;1.90;;;;;;;18.80;72.95;99351.56;5098226;27;43145;-83
2021/07/17 01:16:22;;;;;;;1.57;1.23;;;;;;;18.86;72.74;99370.69;5098041;27;39236;-85
2021/07/17 01:18:49;;;;;;;1.37;0.97;;;;;;;18.47;72.96;99312.44;5097468;27;40783;-85
2021/07/17 01:21:21;;;;;;;2.27;1.50;;;;;;;18.80;72.56;99368.53;5097538;27;41943;-85
2021/07/17 01:23:49;;;;;;;1.63;1.33;;;;;;;18.66;72.71;99355.50;5098271;27;41778;-84
2021/07/17 01:26:17;;;;;;;1.17;1.00;;;;;;;18.73;73.14;99371.91;5099934;27;40232;-85
2021/07/17 01:28:45;;;;;;;1.17;1.07;;;;;;;18.66;73.14;99366.22;5115480;27;41311;-85
2021/07/17 01:31:17;;;;;;;1.20;0.90;;;;;;;18.65;73.46;99380.63;5115047;27;41759;-82
2021/07/17 01:33:44;;;;;;;1.27;1.10;;;;;;;18.62;73.33;99380.88;5115530;27;41764;-86
2021/07/17 01:36:12;;;;;;;1.90;1.57;;;;;;;18.38;73.39;99342.75;5115294;27;39758;-82
2021/07/17 01:38:42;;;;;;;1.40;1.30;;;;;;;18.48;73.60;99363.28;5114276;27;40819;-86
2021/07/17 01:41:10;;;;;;;1.43;1.27;;;;;;;18.47;73.09;99360.72;5115316;27;41954;-83
2021/07/17 01:43:38;;;;;;;1.43;1.00;;;;;;;18.52;73.18;99364.72;5114539;27;42392;-84
2021/07/17 01:46:06;;;;;;;1.67;1.57;;;;;;;18.40;73.64;99348.84;5114221;27;40038;-85
2021/07/17 01:48:33;;;;;;;1.40;1.30;;;;;;;18.27;73.42;99332.97;5114225;27;41022;-84
2021/07/17 01:51:03;;;;;;;1.97;1.77;;;;;;;18.25;73.64;99326.88;5114093;27;42041;-84
2021/07/17 01:53:31;;;;;;;1.10;1.00;;;;;;;18.36;73.62;99344.72;5114096;27;41314;-83
2021/07/17 01:56:00;;;;;;;1.40;1.30;;;;;;;18.40;73.91;99351.53;5115059;27;40133;-83
2021/07/17 01:58:28;;;;;;;1.80;1.67;;;;;;;18.33;73.52;99353.03;5114035;27;41092;-85
2021/07/17 02:00:55;;;;;;;1.60;1.23;;;;;;;18.11;73.66;99314.66;5113704;27;41848;-85
2021/07/17 02:03:24;;;;;;;1.97;1.17;;;;;;;18.39;73.72;99365.91;5131346;27;42131;-86
2021/07/17 02:05:53;;;;;;;2.23;1.77;;;;;;;18.02;73.74;99302.06;5114436;27;39393;-86
2021/07/17 02:08:21;;;;;;;1.10;1.00;;;;;;;18.38;73.55;99350.81;5114383;27;41078;-84
2021/07/17 02:10:49;;;;;;;1.70;1.37;;;;;;;18.50;73.48;99360.47;5114990;27;43203;-85
2021/07/17 02:13:19;;;;;;;1.87;1.60;;;;;;;18.49;73.20;99353.41;5113986;27;41762;-86
2021/07/17 02:15:48;;;;;;;2.07;1.60;;;;;;;18.59;73.61;99359.69;5114768;27;38870;-83
2021/07/17 02:18:24;;;;;;;2.00;1.30;;;;;;;18.44;74.69;99318.94;5113879;27;41042;-85
2021/07/17 02:20:52;;;;;;;1.97;1.80;;;;;;;18.68;74.53;99348.13;5113465;27;41636;-85
2021/07/17 02:23:20;;;;;;;1.70;1.60;;;;;;;18.58;74.17;99334.69;5130608;27;41579;-83
2021/07/17 02:25:47;;;;;;;2.47;1.50;;;;;;;18.55;74.09;99326.03;5114670;27;39062;-84
2021/07/17 02:28:15;;;;;;;2.03;1.77;;;;;;;18.51;74.64;99316.56;5114553;27;41174;-84
2021/07/17 02:30:44;;;;;;;2.10;1.90;;;;;;;18.54;74.92;99335.94;5114875;27;41806;-85
2021/07/17 02:33:12;;;;;;;2.50;2.13;;;;;;;18.42;74.78;99325.44;5114295;27;42138;-83
2021/07/17 02:35:39;;;;;;;2.00;1.80;;;;;;;18.42;75.03;99338.84;5114461;27;39945;-85
2021/07/17 02:38:07;;;;;;;1.60;1.50;;;;;;;18.40;74.96;99324.72;5114243;27;41760;-86
2021/07/17 02:40:36;;;;;;;3.53;1.63;;;;;;;18.43;75.76;99327.94;5113256;27;42596;-84
2021/07/17 02:43:04;;;;;;;2.70;2.10;;;;;;;18.31;75.52;99316.47;5113783;27;42340;-85
2021/07/17 02:45:32;;;;;;;1.77;1.67;;;;;;;18.40;75.49;99338.97;5113579;27;38845;-83
2021/07/17 02:48:00;;;;;;;1.80;1.57;;;;;;;18.36;75.67;99320.59;5113430;27;41035;-83
2021/07/17 02:50:28;;;;;;;1.93;1.70;;;;;;;18.26;75.91;99316.03;5113842;27;42977;-85
2021/07/17 02:52:55;;;;;;;2.57;2.30;;;;;;;18.26;76.21;99312.50;5131149;27;42200;-85
2021/07/17 02:55:23;;;;;;;2.07;1.90;;;;;;;18.34;76.21;99322.53;5113748;27;39999;-85
2021/07/17 02:57:50;;;;;;;2.07;1.60;;;;;;;18.17;76.35;99295.38;5130374;27;40610;-85
2021/07/17 03:00:18;;;;;;;1.60;1.27;;;;;;;18.31;76.59;99312.94;5113865;27;41868;-87
2021/07/17 03:02:46;;;;;;;4.17;1.90;;;;;;;18.16;76.31;99288.31;5112610;27;41828;-86
2021/07/17 03:05:16;;;;;;;2.60;1.73;;;;;;;18.39;76.05;99321.19;5130895;27;40424;-84
2021/07/17 03:07:43;;;;;;;2.03;1.83;;;;;;;18.31;76.30;99304.88;5113991;27;40794;-87
2021/07/17 03:10:12;;;;;;;2.00;1.90;;;;;;;18.30;76.39;99301.34;5112636;27;42175;-83
2021/07/17 03:12:40;;;;;;;1.70;1.60;;;;;;;18.10;76.32;99266.56;5112953;27;42059;-85
2021/07/17 03:15:08;;;;;;;1.83;1.67;;;;;;;18.36;76.35;99315.22;5113977;27;39347;-87
2021/07/17 03:17:37;;;;;;;3.43;1.93;;;;;;;18.35;76.27;99327.78;5112780;27;40771;-84
2021/07/17 03:20:06;;;;;;;3.17;2.17;;;;;;;18.25;75.92;99302.75;5112426;27;43786;-86
2021/07/17 03:22:35;;;;;;;2.50;2.30;;;;;;;18.28;76.27;99314.06;5113378;27;41268;-84
2021/07/17 03:25:03;;;;;;;2.80;2.60;;;;;;;17.95;76.83;99258.84;5096568;27;40809;-85
2021/07/17 03:27:30;;;;;;;2.50;2.30;;;;;;;18.23;76.75;99302.88;5112371;27;41991;-85
2021/07/17 03:29:58;;;;;;;1.67;1.57;;;;;;;18.18;76.67;99291.69;5113000;27;42349;-85
2021/07/17 03:32:26;;;;;;;1.70;1.60;;;;;;;18.22;76.57;99303.88;5112523;27;41346;-84
2021/07/17 03:34:54;;;;;;;2.90;1.80;;;;;;;18.01;76.59;99273.56;5112697;27;38952;-85
2021/07/17 03:37:22;;;;;;;2.60;1.67;;;;;;;18.02;76.31;99275.28;5113314;27;40834;-86
2021/07/17 03:39:51;;;;;;;1.90;1.63;;;;;;;18.18;76.16;99298.88;5112889;27;43204;-84
2021/07/17 03:42:19;;;;;;;2.60;2.40;;;;;;;18.34;76.20;99319.88;5112687;27;41326;-83
2021/07/17 03:44:47;;;;;;;1.57;1.47;;;;;;;18.25;75.96;99300.94;5112682;27;40088;-85
2021/07/17 03:47:15;;;;;;;1.67;1.57;;;;;;;18.37;75.69;99312.41;5112433;27;40751;-85
2021/07/17 03:49:43;;;;;;;1.97;1.73;;;;;;;18.40;75.91;99319.34;5112030;27;43329;-84
2021/07/17 03:52:11;;;;;;;2.77;2.00;;;;;;;18.28;75.47;99298.00;5112584;27;41508;-83
2021/07/17 03:54:39;;;;;;;2.37;1.80;;;;;;;18.20;75.84;99279.00;5129823;27;40679;-85
2021/07/17 03:57:16;;;;;;;1.87;1.60;;;;;;;18.42;75.79;99303.97;5112714;27;41708;-86
2021/07/17 03:59:43;;;;;;;1.80;1.40;;;;;;;18.48;75.41;99316.84;5110698;27;42018;-84
2021/07/17 04:02:17;;;;;;;1.10;0.90;;;;;;;18.45;75.31;99304.53;5112321;27;41346;-85
2021/07/17 04:04:47;;;;;;;1.60;1.50;;;;;;;18.49;75.45;99307.81;5113122;27;40619;-86
2021/07/17 04:07:15;;;;;;;2.10;1.90;;;;;;;18.50;75.60;99304.13;5112121;27;40939;-86
2021/07/17 04:09:43;;;;;;;2.53;2.33;;;;;;;18.46;75.39;99283.94;5112028;27;42110;-84
2021/07/17 04:12:41;;;;;;;1.60;1.50;;;;;;;18.56;75.56;99300.91;5111753;27;42213;-84
2021/07/17 04:15:13;;;;;;;2.03;1.73;;;;;;;18.64;75.57;99312.72;5111465;27;40467;-87
2021/07/17 04:17:41;;;;;;;2.43;1.60;;;;;;;18.57;75.24;99297.25;5129365;27;42688;-83
2021/07/17 04:20:11;;;;;;;1.40;1.30;;;;;;;18.76;75.05;99329.56;5111790;27;43450;-86
2021/07/17 04:22:39;;;;;;;1.60;1.30;;;;;;;18.86;75.24;99345.69;5112215;27;41536;-87
2021/07/17 04:25:11;;;;;;;3.43;1.70;;;;;;;18.90;75.06;99347.97;5112317;27;39950;-84
2021/07/17 04:27:42;;;;;;;2.17;1.97;;;;;;;18.75;74.92;99314.44;5111667;27;40939;-85
2021/07/17 04:33:50;;;;;;;2.33;2.13;;;;;;;19.06;74.95;99352.78;5124684;27;43468;-84
2021/07/17 04:39:09;;;;;;;1.87;1.73;;;;;;;19.05;74.67;99342.19;5092954;27;40710;-85
2021/07/17 04:42:01;;;;;;;2.30;1.93;;;;;;;19.04;74.94;99321.72;5094523;27;42204;-87
2021/07/17 04:44:36;;;;;;;2.50;2.30;;;;;;;19.15;74.57;99332.34;5094661;27;41457;-86
2021/07/17 04:50:03;;;;;;;1.20;1.07;;;;;;;19.39;74.48;99359.66;5094851;27;40337;-85
2021/07/17 04:52:35;;;;;;;1.83;1.63;;;;;;;19.29;74.18;99332.75;5078246;27;43731;-84
2021/07/17 04:55:07;;;;;;;2.03;1.93;;;;;;;19.39;74.17;99343.53;5095985;27;41273;-86
2021/07/17 04:57:34;;;;;;;3.03;2.23;;;;;;;19.50;74.20;99364.94;5094591;27;40315;-84
2021/07/17 05:00:05;;;;;;;2.37;1.97;;;;;;;19.40;74.06;99339.88;5095033;27;41963;-86
2021/07/17 05:02:32;;;;;;;1.87;1.57;;;;;;;19.57;74.13;99363.38;5094730;27;42383;-84
2021/07/17 05:05:00;;;;;;;1.83;1.70;;;;;;;19.33;74.10;99315.41;5093467;27;41861;-86
2021/07/17 05:07:29;;;;;;;2.00;1.90;;;;;;;19.66;73.89;99357.16;5095822;27;40798;-85
2021/07/17 05:09:58;;;;;;;4.23;2.73;;;;;;;19.63;73.93;99340.47;5095152;27;41786;-85
2021/07/17 05:12:26;;;;;;;2.27;2.00;;;;;;;19.92;74.22;99361.94;5097253;27;42523;-86
2021/07/17 05:14:54;;;;;;;2.37;2.17;;;;;;;19.90;73.77;99339.78;5097750;27;41288;-87
2021/07/17 05:17:22;;;;;;;2.00;1.63;;;;;;;19.99;73.86;99341.59;5097876;27;39924;-86
2021/07/17 05:19:50;;;;;;;2.13;1.80;;;;;;;20.01;73.89;99340.47;5098534;27;40889;-87
2021/07/17 05:22:17;;;;;;;2.43;2.23;;;;;;;19.99;73.53;99314.69;5097221;27;42606;-86
2021/07/17 05:24:45;;;;;;;2.40;2.00;;;;;;;20.15;73.65;99330.25;5098867;27;42051;-86
2021/07/17 05:27:16;;;;;;;1.77;1.67;;;;;;;20.22;73.44;99336.72;5099005;27;39092;-84
2021/07/17 05:29:44;;;;;;;2.17;1.97;;;;;;;20.21;73.31;99333.19;5098076;27;42445;-85
2021/07/17 05:32:15;;;;;;;3.23;2.13;;;;;;;20.18;73.40;99324.56;5098031;27;41881;-85
2021/07/17 05:34:43;;;;;;;2.40;1.93;;;;;;;20.18;73.40;99320.03;5097406;27;43042;-85
2021/07/17 05:37:11;;;;;;;2.13;1.93;;;;;;;20.33;73.36;99358.94;5114467;27;39163;-87
2021/07/17 05:39:59;;;;;;;2.37;1.90;;;;;;;20.35;73.28;99362.34;5097624;27;41004;-86
2021/07/17 05:42:44;;;;;;;2.23;1.70;;;;;;;20.20;73.13;99333.34;5098579;27;41765;-83
2021/07/17 05:45:17;;;;;;;2.43;2.23;;;;;;;20.37;73.05;99368.44;5097816;27;41576;-88
2021/07/17 05:48:09;;;;;;;2.30;2.10;;;;;;;20.21;73.13;99341.25;5097404;27;40388;-84
2021/07/17 05:50:45;;;;;;;2.10;1.90;;;;;;;20.25;73.00;99353.44;5097840;27;40739;-83
2021/07/17 05:53:13;;;;;;;2.50;1.83;;;;;;;20.44;73.17;99380.31;5098179;27;42026;-85
2021/07/17 05:55:40;;;;;;;3.40;2.20;;;;;;;20.41;72.63;99364.44;5097424;27;41583;-83
2021/07/17 05:58:10;;;;;;;2.23;2.00;;;;;;;20.47;72.87;99359.50;5097424;27;41084;-84
2021/07/17 06:00:38;;;;;;;2.13;1.93;;;;;;;20.51;72.78;99368.97;5097196;27;42459;-87
2021/07/17 06:03:05;;;;;;;2.40;1.87;;;;;;;20.59;72.63;99369.09;5096891;27;41969;-86
2021/07/17 06:05:33;;;;;;;2.30;1.97;;;;;;;20.75;72.35;99390.84;5097223;27;41640;-85
2021/07/17 06:08:02;;;;;;;2.80;2.57;;;;;;;20.81;72.69;99390.25;5097673;27;39189;-84
2021/07/17 06:10:30;;;;;;;2.37;1.60;;;;;;;20.77;72.57;99376.22;5097379;27;40904;-86
2021/07/17 06:12:58;;;;;;;2.63;2.40;;;;;;;20.85;72.37;99378.19;5097835;27;41943;-84
2021/07/17 06:15:45;;;;;;;2.10;1.90;;;;;;;20.98;72.61;99389.47;5079311;27;41339;-83
2021/07/17 06:18:13;;;;;;;1.80;1.70;;;;;;;21.01;72.57;99389.19;5102570;27;39390;-87
2021/07/17 06:20:41;;;;;;;3.00;2.03;;;;;;;20.88;72.57;99359.06;5120009;27;40350;-82
2021/07/17 06:23:08;;;;;;;4.67;2.50;;;;;;;20.96;72.71;99383.38;5119207;27;42792;-82
2021/07/17 06:25:36;;;;;;;2.30;2.10;;;;;;;20.97;73.03;99395.84;5119781;27;40992;-83
2021/07/17 06:28:04;;;;;;;2.03;1.90;;;;;;;20.96;73.20;99399.53;5121377;27;40061;-84
2021/07/17 06:31:06;;;;;;;2.80;2.30;;;;;;;20.96;73.59;99396.84;5120597;27;40633;-85
2021/07/17 06:36:29;;;;;;;3.17;2.87;;;;;;;20.80;74.09;99383.16;5126294;27;43311;-87
2021/07/17 06:38:57;;;;;;;2.00;1.80;;;;;;;20.84;73.86;99398.03;5101560;28;40499;-84
2021/07/17 06:41:24;;;;;;;4.47;2.30;;;;;;;20.50;74.08;99340.38;5101770;28;41229;-84
2021/07/17 06:43:52;;;;;;;1.60;1.50;;;;;;;20.85;74.03;99394.34;5117987;28;42651;-83
2021/07/17 06:57:52;;;;;;;1.57;1.47;;;;;;;20.87;74.76;99384.28;5094364;27;42204;-88
2021/07/17 07:00:21;;;;;;;1.67;1.57;;;;;;;20.69;74.72;99367.19;5112496;27;42701;-89
2021/07/17 07:02:48;;;;;;;2.70;2.07;;;;;;;20.73;74.92;99368.59;5097009;27;39946;-89
2021/07/17 07:05:16;;;;;;;2.43;1.97;;;;;;;20.77;74.85;99361.94;5095674;27;41232;-90
2021/07/17 07:07:44;;;;;;;2.03;1.83;;;;;;;20.87;75.56;99360.06;5096520;27;41725;-88
2021/07/17 07:10:12;;;;;;;2.33;1.90;;;;;;;20.90;74.97;99359.72;5096879;27;41164;-89
2021/07/17 07:12:40;;;;;;;2.33;2.00;;;;;;;21.05;74.60;99374.41;5095951;27;38815;-90
2021/07/17 07:15:10;;;;;;;2.40;2.20;;;;;;;21.39;75.07;99403.44;5096666;27;41104;-88
2021/07/17 07:17:40;;;;;;;2.00;1.80;;;;;;;21.48;74.63;99381.00;5096268;27;43058;-87
2021/07/17 07:20:08;;;;;;;3.33;2.80;;;;;;;;;;5096648;27;42264;-87
2021/07/17 07:22:35;;;;;;;2.63;2.17;;;;;;;22.02;73.26;99403.44;5096326;27;40592;-90
2021/07/17 07:25:04;;;;;;;2.07;1.87;;;;;;;22.16;73.11;99386.72;5096209;27;40929;-87
2021/07/17 07:27:32;;;;;;;2.13;1.93;;;;;;;22.40;72.61;99389.59;5096406;27;42795;-87
2021/07/17 07:29:59;;;;;;;2.30;2.07;;;;;;;22.61;72.12;99386.53;5095334;27;41864;-88
2021/07/17 07:32:35;;;;;;;2.80;2.17;;;;;;;22.82;71.44;99388.88;5096204;27;38914;-87
2021/07/17 07:35:03;;;;;;;4.07;2.47;;;;;;;22.95;70.85;99391.97;5095388;27;40780;-88
2021/07/17 07:37:31;;;;;;;2.33;2.13;;;;;;;23.04;70.62;99380.19;5095316;27;41886;-88
2021/07/17 07:42:40;;;;;;;3.20;2.57;;;;;;;23.27;69.90;99393.97;5112374;27;40164;-89
2021/07/17 07:45:11;;;;;;;2.60;2.40;;;;;;;23.16;69.87;99381.59;5096022;27;41931;-90
2021/07/17 07:47:56;;;;;;;2.33;2.13;;;;;;;23.23;69.32;99415.09;5096086;27;42404;-86
2021/07/17 07:50:48;;;;;;;2.23;2.03;;;;;;;22.87;69.69;99362.25;5095722;27;42332;-88
2021/07/17 07:53:35;;;;;;;2.50;2.10;;;;;;;22.92;69.90;99403.09;5095640;27;39166;-90
2021/07/17 07:56:04;;;;;;;1.77;1.67;;;;;;;22.77;70.29;99402.00;5095786;27;40983;-88
2021/07/17 08:04:16;;;;;;;2.50;1.80;;;;;;;22.63;71.49;99408.81;5095354;27;39915;-87
2021/07/17 08:06:43;;;;;;;2.33;2.00;;;;;;;22.66;70.98;99383.34;5095378;27;40635;-91
2021/07/17 08:09:11;;;;;;;2.77;2.57;;;;;;;22.90;71.00;99391.59;5096133;27;42017;-85
2021/07/17 08:11:39;;;;;;;2.13;1.93;;;;;;;23.12;70.22;99401.84;5096553;27;42020;-86
2021/07/17 08:14:08;;;;;;;2.17;1.97;;;;;;;23.42;69.60;99396.88;5097325;27;39840;-88
2021/07/17 08:16:36;;;;;;;3.07;2.83;;;;;;;23.87;69.02;99400.03;5095303;27;40835;-89
2021/07/17 08:19:04;;;;;;;3.27;2.57;;;;;;;24.32;67.50;99379.81;5095609;27;43121;-87
2021/07/17 08:24:59;;;;;;;3.50;2.43;;;;;;;24.80;65.24;99378.88;5095465;27;39077;-89
2021/07/17 08:27:28;;;;;;;2.27;2.07;;;;;;;24.85;65.67;99389.19;5078452;27;42603;-85
2021/07/17 08:30:16;;;;;;;2.07;1.87;;;;;;;24.74;65.35;99365.16;5094338;27;41909;-89
2021/07/17 08:32:44;;;;;;;2.73;2.53;;;;;;;24.65;65.38;99370.59;5095479;27;41270;-88
2021/07/17 08:35:20;;;;;;;2.50;2.27;;;;;;;24.66;65.11;99393.13;5095636;27;41559;-87
2021/07/17 08:37:48;;;;;;;2.87;2.37;;;;;;;24.42;65.56;99352.53;5095708;27;40703;-87
2021/07/17 08:40:45;;;;;;;3.57;2.40;;;;;;;24.83;65.00;99388.50;5095032;27;42707;-90
2021/07/17 08:43:14;;;;;;;2.57;2.20;;;;;;;24.92;64.25;99368.50;5094727;27;42299;-85
2021/07/17 08:46:10;;;;;;;2.47;2.27;;;;;;;25.22;63.22;99367.69;5096797;27;38981;-86
2021/07/17 08:48:38;;;;;;;4.47;2.50;;;;;;;25.74;61.77;99377.94;5099213;27;41384;-90
2021/07/17 08:51:07;;;;;;;2.77;2.47;;;;;;;26.25;61.27;99398.06;5082029;27;42015;-89
2021/07/17 08:56:57;;;;;;;2.27;1.87;;;;;;;26.45;59.92;99390.31;5097841;27;40105;-85
2021/07/17 08:59:42;;;;;;;2.57;1.90;;;;;;;26.51;59.99;99395.00;5098201;27;42278;-84
2021/07/17 09:02:09;;;;;;;3.40;3.10;;;;;;;26.39;59.13;99404.63;5081163;27;42833;-85
2021/07/17 09:04:41;;;;;;;2.60;2.40;;;;;;;26.11;59.42;99359.00;5098388;27;41912;-88
2021/07/17 09:07:16;;;;;;;2.50;2.30;;;;;;;26.24;58.88;99390.13;5098427;27;38976;-90
2021/07/17 09:10:18;;;;;;;2.40;2.20;;;;;;;26.17;59.31;99373.72;5098590;27;40707;-86
2021/07/17 09:12:48;;;;;;;2.57;2.37;;;;;;;26.37;59.36;99387.66;5096400;27;43674;-86
2021/07/17 09:15:54;;;;;;;2.33;1.87;;;;;;;26.31;58.70;99380.25;5097824;27;41273;-86
2021/07/17 09:19:01;;;;;;;2.47;2.27;;;;;;;26.23;58.40;99377.56;5098128;27;40693;-89
2021/07/17 09:21:49;;;;;;;2.47;1.97;;;;;;;26.27;58.75;99392.47;5097246;27;42124;-87
2021/07/17 09:24:21;;;;;;;2.60;2.40;;;;;;;26.20;59.68;99388.81;5098332;27;41734;-86
2021/07/17 09:26:53;;;;;;;2.43;2.23;;;;;;;26.16;59.93;99382.91;5098735;27;41744;-85
2021/07/17 09:32:08;;;;;;;2.43;2.23;;;;;;;26.39;59.75;99393.75;5098388;27;40192;-89
2021/07/17 09:34:36;;;;;;;2.70;2.47;;;;;;;26.31;58.59;99359.38;5097634;27;41949;-86
2021/07/17 09:37:09;;;;;;;2.70;2.50;;;;;;;26.62;57.98;99389.09;5097958;27;41288;-85
2021/07/17 09:39:39;;;;;;;2.13;1.93;;;;;;;26.71;58.39;99382.53;5081308;27;39007;-84
2021/07/17 09:42:09;;;;;;;2.57;1.87;;;;;;;26.96;57.88;99398.63;5098336;27;40852;-84
2021/07/17 09:44:48;;;;;;;2.47;2.27;;;;;;;27.10;57.57;99395.03;5099477;27;41761;-84
2021/07/17 09:47:19;;;;;;;2.50;2.30;;;;;;;27.32;56.95;99396.84;5100746;27;42119;-84
2021/07/17 09:52:51;;;;;;;2.77;2.43;;;;;;;27.99;55.34;99388.38;5095885;27;40737;-87
2021/07/17 09:58:32;;;;;;;1.83;1.67;;;;;;;28.29;53.89;99371.94;5095776;27;42254;-86
2021/07/17 10:01:22;;;;;;;1.93;1.80;;;;;;;28.63;53.00;99357.50;5097018;27;40684;-89
2021/07/17 10:04:05;;;;;;;2.00;1.90;;;;;;;29.14;51.41;99371.69;5096862;27;41622;-85
2021/07/17 10:06:45;;;;;;;4.90;2.67;;;;;;;30.07;49.70;99417.41;5096358;27;41994;-85
2021/07/17 10:09:43;;;;;;;2.37;2.23;;;;;;;30.88;48.26;99414.50;5096851;27;42022;-84
2021/07/17 10:12:18;;;;;;;1.90;1.80;;;;;;;31.77;46.48;99426.44;5096001;27;40530;-85
2021/07/17 10:14:47;;;;;;;3.13;2.70;;;;;;;32.14;45.36;99410.22;5096770;27;40616;-84
2021/07/17 10:17:19;;;;;;;2.50;2.30;;;;;;;32.78;45.16;99400.88;5097077;27;42159;-85
2021/07/17 10:19:48;;;;;;;2.20;2.00;;;;;;;33.93;44.34;99426.59;5096918;27;41710;-85
2021/07/17 10:22:22;;;;;;;1.83;1.73;;;;;;;34.07;42.29;99430.00;5114106;27;41878;-85
2021/07/17 10:24:50;;;;;;;2.47;2.27;;;;;;;33.95;42.00;99434.59;5096814;27;40723;-84
2021/07/17 10:27:27;;;;;;;1.93;1.83;;;;;;;33.84;41.19;99428.84;5096661;27;42075;-85
2021/07/17 10:29:58;;;;;;;1.93;1.80;;;;;;;33.56;41.72;99392.00;5071745;28;42066;-85
2021/07/17 10:32:35;;;;;;;2.50;2.30;;;;;;;33.86;40.94;99432.19;5055482;28;39139;-84
2021/07/17 10:35:35;;;;;;;1.77;1.67;;;;;;;33.88;40.53;99435.53;5071023;28;41236;-86
2021/07/17 10:38:34;;;;;;;2.67;2.47;;;;;;;33.35;41.18;99380.44;5054173;28;42839;-83
2021/07/17 10:41:21;;;;;;;2.27;2.07;;;;;;;33.74;41.84;99389.22;5066807;28;41630;-83
2021/07/17 10:43:51;;;;;;;2.40;2.10;;;;;;;33.97;40.24;99411.31;5055918;28;39211;-84
2021/07/17 10:46:48;;;;;;;2.50;2.30;;;;;;;34.10;41.09;99407.53;5070688;28;42003;-85
2021/07/17 10:49:34;;;;;;;2.20;1.80;;;;;;;34.16;40.18;99409.31;5054838;28;41663;-83
2021/07/17 10:56:00;;;;;;;3.10;2.80;;;;;;;33.47;41.25;99386.81;5045666;28;38712;-83
2021/07/17 10:58:53;;;;;;;1.80;1.70;;;;;;;33.09;41.32;99387.03;5011625;28;41141;-85
2021/07/17 11:01:58;;;;;;;2.10;2.00;;;;;;;32.91;42.02;99389.75;5054295;28;42089;-85
2021/07/17 11:04:33;;;;;;;2.07;1.80;;;;;;;32.89;42.77;99386.41;5070953;28;42457;-83
2021/07/17 11:08:03;;;;;;;1.70;1.50;;;;;;;32.56;42.38;99391.34;5065530;27;38913;-83
2021/07/17 11:10:41;;;;;;;2.40;2.20;;;;;;;32.15;44.47;99351.59;5112902;27;41419;-83
2021/07/17 11:13:29;;;;;;;2.20;2.10;;;;;;;32.30;43.71;99376.78;5096695;27;41921;-85
2021/07/17 11:15:57;;;;;;;2.30;2.10;;;;;;;32.63;43.80;99372.94;5096763;27;41222;-83
2021/07/17 11:18:49;;;;;;;2.00;1.90;;;;;;;32.68;43.64;99375.84;5094842;27;41412;-82
2021/07/17 11:21:33;;;;;;;2.70;2.50;;;;;;;32.58;42.88;99367.28;5096323;27;40669;-83
2021/07/17 11:24:17;;;;;;;2.50;2.30;;;;;;;32.40;43.53;99363.41;5112322;27;41939;-82
2021/07/17 11:27:20;;;;;;;2.43;2.23;;;;;;;32.23;44.54;99370.53;5050621;27;42918;-83
2021/07/17 11:30:16;;;;;;;2.27;2.07;;;;;;;31.56;45.08;99325.41;5096438;27;39201;-84
2021/07/17 11:33:44;;;;;;;2.60;2.40;;;;;;;31.05;45.57;99312.59;5096192;27;40709;-83
2021/07/17 11:36:31;;;;;;;2.90;2.70;;;;;;;30.72;46.48;99341.94;5041093;28;41791;-83
2021/07/17 11:39:25;;;;;;;2.20;2.00;;;;;;;30.52;47.56;99343.84;5035283;28;41502;-84
2021/07/17 11:42:04;;;;;;;2.67;2.47;;;;;;;30.40;48.56;99340.91;5049979;28;38890;-85
2021/07/17 11:44:35;;;;;;;2.90;2.60;;;;;;;30.43;48.83;99340.47;5051277;28;42084;-84
2021/07/17 11:47:05;;;;;;;2.80;2.27;;;;;;;30.66;47.95;99329.13;5051433;28;42806;-83
2021/07/17 11:49:35;;;;;;;3.07;2.63;;;;;;;31.06;47.87;99338.03;5034112;28;41254;-85
2021/07/17 11:52:08;;;;;;;2.70;2.50;;;;;;;31.43;47.64;99345.50;5050516;28;40943;-83
2021/07/17 11:54:38;;;;;;;2.40;2.20;;;;;;;31.65;46.17;99326.84;5049914;28;41127;-84
2021/07/17 11:57:13;;;;;;;2.27;2.17;;;;;;;32.53;45.27;99339.69;5033784;28;41922;-86
2021/07/17 11:59:43;;;;;;;2.10;2.00;;;;;;;33.25;44.63;99346.34;5067240;28;42499;-83
2021/07/17 12:02:12;;;;;;;2.60;2.40;;;;;;;34.21;42.27;99357.22;5050874;28;40214;-84
2021/07/17 12:04:45;;;;;;;2.67;2.47;;;;;;;35.36;40.13;99359.41;5050894;28;42327;-82
2021/07/17 12:11:00;;;;;;;2.70;2.50;;;;;;;36.58;37.28;99335.72;5094725;27;42141;-83
2021/07/17 12:14:40;;;;;;;2.70;2.47;;;;;;;35.97;38.18;99301.63;5115964;27;41655;-83
2021/07/17 12:17:46;;;;;;;2.93;2.73;;;;;;;35.78;38.17;99349.78;5111234;27;42645;-83
2021/07/17 12:23:19;;;;;;;2.03;1.93;;;;;;;36.68;36.97;99318.47;5087430;28;41766;-86
2021/07/17 12:34:06;;;;;;;2.23;2.03;;;;;;;35.83;38.12;99333.34;4939331;28;42103;-85
2021/07/17 12:36:53;;;;;;;2.50;2.30;;;;;;;35.28;39.12;99333.91;4899390;29;20849;-84
2021/07/17 12:39:41;;;;;;;2.20;2.10;;;;;;;34.72;39.78;99322.72;4912769;29;39921;-84
2021/07/17 12:45:01;;;;;;;2.40;2.20;;;;;;;36.26;37.53;99301.53;5000274;28;42288;-85
2021/07/17 12:48:25;;;;;;;2.93;2.63;;;;;;;36.90;36.22;99326.81;5000468;28;41268;-83
2021/07/17 12:51:27;;;;;;;3.37;2.80;;;;;;;36.25;36.67;99342.06;5026861;28;38981;-84
2021/07/17 12:54:14;;;;;;;2.47;2.13;;;;;;;36.04;38.04;99328.16;5031624;28;40682;-84
2021/07/17 12:56:48;;;;;;;3.03;2.50;;;;;;;36.30;36.80;99278.72;5061150;28;42842;-83
2021/07/17 12:59:31;;;;;;;2.80;2.60;;;;;;;37.06;35.70;99334.22;5087200;28;43255;-85
2021/07/17 13:05:43;;;;;;;2.50;2.30;;;;;;;38.75;32.49;99346.72;5059716;28;41651;-84
2021/07/17 13:08:19;;;;;;;3.43;3.13;;;;;;;39.42;32.32;99349.59;5093592;27;41979;-84
2021/07/17 13:10:49;;;;;;;2.87;2.67;;;;;;;39.47;31.00;99340.47;5114542;27;42585;-83
2021/07/17 13:13:30;;;;;;;2.97;2.77;;;;;;;40.01;30.66;99313.13;5131690;27;40997;-82
2021/07/17 13:16:07;;;;;;;2.50;2.30;;;;;;;41.02;29.10;99341.91;5114981;27;40953;-84
2021/07/17 13:18:35;;;;;;;3.37;2.40;;;;;;;41.38;29.00;99365.72;5089850;28;41866;-84